createdAt,value
2022-08-29T00:01:03.701Z,21.94
2022-08-29T00:03:32.292Z,21.91
2022-08-29T00:05:58.832Z,21.92
2022-08-29T00:08:25.666Z,21.90
2022-08-29T00:10:52.174Z,21.91
2022-08-29T00:13:18.693Z,21.91
2022-08-29T00:15:45.509Z,21.91
2022-08-29T00:18:13.606Z,21.90
2022-08-29T00:20:40.379Z,21.89
2022-08-29T00:23:06.927Z,21.90
2022-08-29T00:25:33.459Z,21.90
2022-08-29T00:28:00.071Z,21.87
2022-08-29T00:30:26.574Z,21.88
2022-08-29T00:32:53.119Z,21.89
2022-08-29T00:35:22.489Z,21.86
2022-08-29T00:37:49.049Z,21.84
2022-08-29T00:40:19.640Z,21.83
2022-08-29T00:42:46.300Z,21.83
2022-08-29T00:45:13.289Z,21.80
2022-08-29T00:47:43.288Z,21.80
2022-08-29T00:50:10.136Z,21.80
2022-08-29T00:52:39.711Z,21.78
2022-08-29T00:55:11.224Z,21.79
2022-08-29T00:57:38.519Z,21.79
2022-08-29T01:00:06.281Z,21.72
2022-08-29T01:02:36.137Z,21.77
2022-08-29T01:05:05.768Z,21.77
2022-08-29T01:07:33.123Z,21.75
2022-08-29T01:09:59.724Z,21.76
2022-08-29T01:12:27.313Z,21.75
2022-08-29T01:14:58.928Z,21.75
2022-08-29T01:17:48.446Z,21.75
2022-08-29T01:20:20.787Z,21.76
2022-08-29T01:23:00.979Z,21.74
2022-08-29T01:25:29.293Z,21.72
2022-08-29T01:28:07.916Z,21.73
2022-08-29T01:30:34.482Z,21.72
2022-08-29T01:33:01.115Z,21.67
2022-08-29T01:35:27.883Z,21.67
2022-08-29T01:37:54.472Z,21.67
2022-08-29T01:40:21.427Z,21.67
2022-08-29T01:42:51.111Z,21.67
2022-08-29T01:45:17.647Z,21.65
2022-08-29T01:47:44.140Z,21.65
2022-08-29T01:50:13.053Z,21.64
2022-08-29T01:52:39.588Z,21.62
2022-08-29T01:55:06.345Z,21.60
2022-08-29T01:57:33.129Z,21.59
2022-08-29T01:59:59.662Z,21.61
2022-08-29T02:02:27.591Z,21.59
2022-08-29T02:04:54.881Z,21.59
2022-08-29T02:07:21.886Z,21.61
2022-08-29T02:09:48.394Z,21.60
2022-08-29T02:12:15.675Z,21.59
2022-08-29T02:14:42.310Z,21.58
2022-08-29T02:17:09.229Z,21.58
2022-08-29T02:19:35.942Z,21.59
2022-08-29T02:22:03.028Z,21.59
2022-08-29T02:24:30.072Z,21.56
2022-08-29T02:26:56.825Z,21.54
2022-08-29T02:29:24.053Z,21.54
2022-08-29T02:31:50.544Z,21.52
2022-08-29T02:34:17.221Z,21.53
2022-08-29T02:36:44.685Z,21.51
2022-08-29T02:39:12.937Z,21.49
2022-08-29T02:41:39.763Z,21.50
2022-08-29T02:44:10.841Z,21.49
2022-08-29T02:46:37.396Z,21.50
2022-08-29T02:49:03.917Z,21.50
2022-08-29T02:51:31.105Z,21.47
2022-08-29T02:53:57.703Z,21.47
2022-08-29T02:56:24.233Z,21.44
2022-08-29T02:58:50.971Z,21.46
2022-08-29T03:01:18.839Z,21.46
2022-08-29T03:03:45.422Z,21.46
2022-08-29T03:06:12.819Z,21.45
2022-08-29T03:08:39.519Z,21.43
2022-08-29T03:11:06.529Z,21.44
2022-08-29T03:13:33.732Z,21.45
2022-08-29T03:16:02.290Z,21.46
2022-08-29T03:18:29.282Z,21.43
2022-08-29T03:20:55.819Z,21.43
2022-08-29T03:23:22.322Z,21.44
2022-08-29T03:25:48.835Z,21.42
2022-08-29T03:28:15.857Z,21.41
2022-08-29T03:30:42.822Z,21.38
2022-08-29T03:33:11.842Z,21.37
2022-08-29T03:35:38.741Z,21.35
2022-08-29T03:38:05.255Z,21.37
2022-08-29T03:40:31.820Z,21.33
2022-08-29T03:42:58.394Z,21.33
2022-08-29T03:45:26.095Z,21.32
2022-08-29T03:47:53.103Z,21.33
2022-08-29T03:50:20.135Z,21.32
2022-08-29T03:52:46.691Z,21.30
2022-08-29T03:55:13.298Z,21.30
2022-08-29T03:57:39.826Z,21.30
2022-08-29T04:00:11.657Z,21.32
2022-08-29T04:02:39.215Z,21.31
2022-08-29T04:05:08.934Z,21.30
2022-08-29T04:07:58.554Z,21.33
2022-08-29T04:10:30.027Z,21.35
2022-08-29T04:12:56.729Z,21.35
2022-08-29T04:15:24.057Z,21.35
2022-08-29T04:17:55.266Z,21.37
2022-08-29T04:20:25.244Z,21.37
2022-08-29T04:22:52.918Z,21.35
2022-08-29T04:25:19.437Z,21.36
2022-08-29T04:27:45.914Z,21.44
2022-08-29T04:30:14.831Z,21.50
2022-08-29T04:32:41.437Z,21.47
2022-08-29T04:35:08.748Z,21.49
2022-08-29T04:37:35.276Z,21.49
2022-08-29T04:40:02.035Z,21.47
2022-08-29T04:42:28.589Z,21.48
2022-08-29T04:44:55.241Z,21.47
2022-08-29T04:47:22.265Z,21.49
2022-08-29T04:49:53.095Z,21.50
2022-08-29T04:52:22.091Z,21.45
2022-08-29T04:54:48.603Z,21.44
2022-08-29T04:57:15.093Z,21.48
2022-08-29T04:59:42.767Z,21.47
2022-08-29T05:02:09.253Z,21.48
2022-08-29T05:04:35.762Z,21.49
2022-08-29T05:07:02.245Z,21.58
2022-08-29T05:09:28.786Z,21.57
2022-08-29T05:11:55.285Z,21.57
2022-08-29T05:14:21.786Z,21.54
2022-08-29T05:16:48.376Z,21.53
2022-08-29T05:19:16.103Z,21.51
2022-08-29T05:21:42.668Z,21.52
2022-08-29T05:24:10.853Z,21.53
2022-08-29T05:26:41.595Z,21.54
2022-08-29T05:29:09.255Z,21.55
2022-08-29T05:31:37.408Z,21.54
2022-08-29T05:34:21.888Z,21.54
2022-08-29T05:36:51.676Z,21.53
2022-08-29T05:39:18.182Z,21.50
2022-08-29T05:41:44.673Z,21.52
2022-08-29T05:44:11.168Z,21.48
2022-08-29T05:46:37.686Z,21.41
2022-08-29T05:49:05.710Z,21.41
2022-08-29T05:51:37.214Z,21.42
2022-08-29T05:54:05.491Z,21.44
2022-08-29T05:56:31.988Z,21.46
2022-08-29T05:58:58.511Z,21.48
2022-08-29T06:01:27.001Z,21.49
2022-08-29T06:03:54.407Z,21.50
2022-08-29T06:06:22.308Z,21.51
2022-08-29T06:08:49.819Z,21.53
2022-08-29T06:11:20.879Z,21.56
2022-08-29T06:13:47.390Z,21.61
2022-08-29T06:16:19.196Z,21.62
2022-08-29T06:18:45.979Z,21.72
2022-08-29T06:21:12.751Z,21.78
2022-08-29T06:23:39.853Z,21.87
2022-08-29T06:26:06.546Z,21.84
2022-08-29T06:28:33.819Z,21.78
2022-08-29T06:31:11.066Z,21.73
2022-08-29T06:33:37.803Z,21.71
2022-08-29T06:36:04.909Z,21.70
2022-08-29T06:38:31.595Z,21.72
2022-08-29T06:41:03.186Z,21.72
2022-08-29T06:43:29.765Z,21.74
2022-08-29T06:45:56.305Z,21.78
2022-08-29T06:48:25.311Z,21.91
2022-08-29T06:50:55.427Z,21.97
2022-08-29T06:53:29.847Z,21.86
2022-08-29T06:56:06.455Z,21.87
2022-08-29T06:58:37.739Z,21.88
2022-08-29T07:01:15.355Z,21.90
2022-08-29T07:03:42.065Z,21.91
2022-08-29T07:06:08.699Z,21.89
2022-08-29T07:08:35.251Z,21.90
2022-08-29T07:11:01.847Z,21.88
2022-08-29T07:13:28.380Z,21.87
2022-08-29T07:15:54.933Z,21.88
2022-08-29T07:18:21.483Z,21.88
2022-08-29T07:20:48.158Z,21.89
2022-08-29T07:23:14.762Z,21.86
2022-08-29T07:25:41.321Z,21.85
2022-08-29T07:28:07.936Z,21.84
2022-08-29T07:30:37.028Z,21.83
2022-08-29T07:33:03.682Z,21.83
2022-08-29T07:35:30.956Z,21.81
2022-08-29T07:37:58.576Z,21.39
2022-08-29T07:40:25.147Z,21.60
2022-08-29T07:42:51.669Z,21.72
2022-08-29T07:45:18.172Z,21.45
2022-08-29T07:47:44.757Z,21.63
2022-08-29T07:50:11.834Z,21.77
2022-08-29T07:52:38.380Z,21.90
2022-08-29T07:55:05.432Z,21.93
2022-08-29T07:57:32.259Z,21.90
2022-08-29T07:59:58.755Z,21.91
2022-08-29T08:02:25.295Z,21.92
2022-08-29T08:04:52.444Z,22.15
2022-08-29T08:07:19.180Z,22.25
2022-08-29T08:09:45.908Z,22.34
2022-08-29T08:12:12.408Z,22.39
2022-08-29T08:14:38.908Z,22.43
2022-08-29T08:17:05.462Z,22.38
2022-08-29T08:19:31.994Z,22.45
2022-08-29T08:21:59.376Z,22.48
2022-08-29T08:24:25.927Z,22.54
2022-08-29T08:26:53.977Z,22.58
2022-08-29T08:29:20.471Z,22.63
2022-08-29T08:31:49.835Z,22.64
2022-08-29T08:34:17.501Z,22.67
2022-08-29T08:36:44.739Z,22.66
2022-08-29T08:39:12.284Z,22.67
2022-08-29T08:41:57.322Z,22.68
2022-08-29T08:44:26.926Z,22.67
2022-08-29T08:46:58.202Z,22.68
2022-08-29T08:49:36.261Z,22.70
2022-08-29T08:52:05.883Z,22.76
2022-08-29T08:54:34.826Z,22.66
2022-08-29T08:57:05.288Z,22.65
2022-08-29T08:59:39.366Z,22.67
2022-08-29T09:02:26.460Z,22.68
2022-08-29T09:05:27.999Z,22.77
2022-08-29T09:08:04.878Z,22.81
2022-08-29T09:10:43.360Z,22.76
2022-08-29T09:13:12.800Z,22.71
2022-08-29T09:15:43.081Z,22.68
2022-08-29T09:18:13.485Z,22.65
2022-08-29T09:20:40.608Z,22.68
2022-08-29T09:23:42.423Z,22.83
2022-08-29T09:26:11.820Z,23.20
2022-08-29T09:28:38.413Z,23.44
2022-08-29T09:31:35.376Z,22.88
2022-08-29T09:34:04.093Z,22.74
2022-08-29T09:36:42.841Z,22.50
2022-08-29T09:39:18.564Z,22.26
2022-08-29T09:41:46.822Z,22.25
2022-08-29T09:44:25.414Z,22.22
2022-08-29T09:47:08.896Z,22.13
2022-08-29T09:49:35.426Z,22.32
2022-08-29T09:52:17.422Z,22.26
2022-08-29T09:54:44.622Z,22.17
2022-08-29T09:57:18.886Z,22.18
2022-08-29T09:59:49.607Z,22.22
2022-08-29T10:02:22.209Z,22.15
2022-08-29T10:04:55.817Z,21.93
2022-08-29T10:07:25.380Z,21.78
2022-08-29T10:10:00.290Z,21.91
2022-08-29T10:12:51.443Z,21.93
2022-08-29T10:15:49.978Z,22.17
2022-08-29T10:18:28.877Z,22.45
2022-08-29T10:21:04.239Z,22.43
2022-08-29T10:23:39.742Z,22.20
2022-08-29T10:26:11.508Z,22.24
2022-08-29T10:28:51.590Z,22.10
2022-08-29T10:31:35.652Z,22.19
2022-08-29T10:34:27.382Z,22.17
2022-08-29T10:37:03.088Z,22.26
2022-08-29T10:39:40.739Z,22.17
2022-08-29T10:42:16.002Z,21.94
2022-08-29T10:45:05.228Z,22.08
2022-08-29T10:47:38.967Z,22.16
2022-08-29T10:50:27.425Z,22.11
2022-08-29T10:53:14.591Z,22.26
2022-08-29T10:56:16.105Z,22.24
2022-08-29T10:59:04.690Z,22.06
2022-08-29T11:01:44.208Z,22.12
2022-08-29T11:04:17.962Z,21.92
2022-08-29T11:07:09.313Z,22.11
2022-08-29T11:09:50.736Z,22.13
2022-08-29T11:12:26.208Z,22.05
2022-08-29T11:15:00.489Z,22.10
2022-08-29T11:17:36.257Z,21.99
2022-08-29T11:20:09.533Z,21.98
2022-08-29T11:22:37.371Z,22.03
2022-08-29T11:25:12.397Z,22.02
2022-08-29T11:27:57.425Z,21.97
2022-08-29T11:30:39.362Z,21.95
2022-08-29T11:33:35.043Z,21.87
2022-08-29T11:36:10.179Z,22.10
2022-08-29T11:38:50.165Z,22.02
2022-08-29T11:41:32.857Z,22.17
2022-08-29T11:44:27.034Z,22.25
2022-08-29T11:46:56.661Z,22.22
2022-08-29T11:49:38.090Z,22.16
2022-08-29T11:52:13.188Z,22.28
2022-08-29T11:54:39.953Z,22.25
2022-08-29T11:57:06.332Z,22.17
2022-08-29T11:59:51.097Z,22.06
2022-08-29T12:02:32.660Z,22.15
2022-08-29T12:05:14.346Z,22.20
2022-08-29T12:07:44.769Z,22.16
2022-08-29T12:10:13.628Z,22.18
2022-08-29T12:12:47.865Z,22.18
2022-08-29T12:15:29.627Z,22.20
2022-08-29T12:18:02.590Z,22.17
2022-08-29T12:20:29.903Z,22.32
2022-08-29T12:22:59.622Z,22.41
2022-08-29T12:25:45.031Z,22.44
2022-08-29T12:28:27.875Z,22.51
2022-08-29T12:31:01.258Z,22.47
2022-08-29T12:33:37.968Z,22.36
2022-08-29T12:36:20.872Z,22.40
2022-08-29T12:39:19.483Z,22.34
2022-08-29T12:42:07.984Z,22.31
2022-08-29T12:44:39.893Z,22.46
2022-08-29T12:47:22.204Z,22.49
2022-08-29T12:49:55.840Z,22.49
2022-08-29T12:52:26.907Z,22.58
2022-08-29T12:54:56.605Z,22.50
2022-08-29T12:57:33.091Z,22.49
2022-08-29T12:59:59.595Z,22.46
2022-08-29T13:02:31.180Z,22.39
2022-08-29T13:04:57.967Z,22.45
2022-08-29T13:07:24.764Z,22.43
2022-08-29T13:09:52.255Z,22.44
2022-08-29T13:12:30.265Z,22.40
2022-08-29T13:14:57.935Z,22.54
2022-08-29T13:17:29.842Z,22.49
2022-08-29T13:20:37.908Z,22.54
2022-08-29T13:23:26.399Z,22.48
2022-08-29T13:25:56.725Z,22.56
2022-08-29T13:29:01.808Z,22.58
2022-08-29T13:31:32.789Z,22.66
2022-08-29T13:33:59.292Z,22.67
2022-08-29T13:37:01.291Z,22.56
2022-08-29T13:39:32.342Z,22.63
2022-08-29T13:42:01.751Z,22.53
2022-08-29T13:44:49.488Z,22.59
2022-08-29T13:47:23.574Z,22.58
2022-08-29T13:49:50.189Z,22.57
2022-08-29T13:52:17.050Z,22.60
2022-08-29T13:54:43.543Z,22.64
2022-08-29T13:57:20.999Z,22.66
2022-08-29T13:59:47.588Z,22.72
2022-08-29T14:02:14.842Z,22.76
2022-08-29T14:04:42.370Z,22.78
2022-08-29T14:07:28.870Z,22.81
2022-08-29T14:09:55.407Z,22.80
2022-08-29T14:12:33.320Z,22.81
2022-08-29T14:15:04.081Z,22.83
2022-08-29T14:17:34.751Z,22.84
2022-08-29T14:20:01.262Z,22.83
2022-08-29T14:22:27.774Z,22.84
2022-08-29T14:24:54.366Z,22.84
2022-08-29T14:27:21.243Z,22.85
2022-08-29T14:29:47.959Z,22.86
2022-08-29T14:32:14.462Z,22.83
2022-08-29T14:34:40.971Z,22.87
2022-08-29T14:37:17.363Z,22.88
2022-08-29T14:39:43.867Z,22.89
2022-08-29T14:42:16.180Z,22.88
2022-08-29T14:44:42.711Z,22.88
2022-08-29T14:47:09.232Z,22.88
2022-08-29T14:49:35.794Z,22.89
2022-08-29T14:52:02.542Z,22.88
2022-08-29T14:54:29.035Z,22.87
2022-08-29T14:56:55.520Z,22.87
2022-08-29T14:59:22.218Z,22.86
2022-08-29T15:01:53.748Z,22.86
2022-08-29T15:04:27.428Z,22.88
2022-08-29T15:07:10.767Z,22.89
2022-08-29T15:09:37.969Z,22.88
2022-08-29T15:12:04.793Z,22.89
2022-08-29T15:14:31.288Z,22.88
2022-08-29T15:16:57.789Z,22.89
2022-08-29T15:20:17.697Z,22.88
2022-08-29T15:22:11.109Z,22.88
2022-08-29T15:24:37.596Z,22.88
2022-08-29T15:27:04.393Z,22.88
2022-08-29T15:29:30.964Z,22.89
2022-08-29T15:31:57.538Z,22.89
2022-08-29T15:34:27.336Z,22.89
2022-08-29T15:36:54.245Z,22.90
2022-08-29T15:39:20.799Z,22.89
2022-08-29T15:41:47.341Z,22.89
2022-08-29T15:44:13.925Z,22.87
2022-08-29T15:46:50.561Z,22.88
2022-08-29T15:49:17.607Z,22.89
2022-08-29T15:51:44.095Z,22.89
2022-08-29T15:54:11.036Z,22.86
2022-08-29T15:56:37.522Z,22.87
2022-08-29T15:59:05.857Z,22.87
2022-08-29T16:01:41.172Z,22.85
2022-08-29T16:04:08.156Z,22.89
2022-08-29T16:06:34.720Z,22.86
2022-08-29T16:09:01.378Z,22.90
2022-08-29T16:11:28.345Z,22.90
2022-08-29T16:14:15.692Z,22.89
2022-08-29T16:16:42.390Z,22.89
2022-08-29T16:19:09.387Z,22.89
2022-08-29T16:21:35.972Z,22.88
2022-08-29T16:24:03.873Z,22.87
2022-08-29T16:26:30.557Z,22.86
2022-08-29T16:28:57.066Z,22.88
2022-08-29T16:31:23.597Z,22.87
2022-08-29T16:33:50.142Z,22.88
2022-08-29T16:36:16.842Z,22.87
2022-08-29T16:38:43.628Z,22.88
2022-08-29T16:41:12.066Z,22.87
2022-08-29T16:43:38.816Z,22.85
2022-08-29T16:46:05.940Z,22.86
2022-08-29T16:48:32.530Z,22.86
2022-08-29T16:50:59.029Z,22.83
2022-08-29T16:53:25.523Z,22.83
2022-08-29T16:55:52.020Z,22.84
2022-08-29T16:58:38.421Z,22.82
2022-08-29T17:01:05.476Z,22.82
2022-08-29T17:03:32.052Z,22.82
2022-08-29T17:05:58.541Z,22.81
2022-08-29T17:08:25.015Z,22.81
2022-08-29T17:10:51.480Z,22.81
2022-08-29T17:13:18.274Z,22.81
2022-08-29T17:15:44.721Z,22.80
2022-08-29T17:18:11.226Z,22.78
2022-08-29T17:20:38.018Z,22.75
2022-08-29T17:23:04.901Z,22.75
2022-08-29T17:25:36.449Z,22.71
2022-08-29T17:28:25.019Z,22.70
2022-08-29T17:30:50.550Z,22.68
2022-08-29T17:33:18.186Z,22.68
2022-08-29T17:35:45.507Z,22.66
2022-08-29T17:38:12.145Z,22.67
2022-08-29T17:40:38.992Z,22.66
2022-08-29T17:43:07.320Z,22.60
2022-08-29T17:45:33.901Z,22.63
2022-08-29T17:48:00.461Z,22.62
2022-08-29T17:50:26.966Z,22.58
2022-08-29T17:52:54.069Z,22.59
2022-08-29T17:55:20.558Z,22.58
2022-08-29T17:57:47.115Z,22.58
2022-08-29T18:00:13.995Z,22.57
2022-08-29T18:02:41.625Z,22.57
2022-08-29T18:05:10.180Z,22.56
2022-08-29T18:07:39.188Z,22.54
2022-08-29T18:10:11.988Z,22.55
2022-08-29T18:12:38.597Z,22.52
2022-08-29T18:15:06.208Z,22.51
2022-08-29T18:17:33.248Z,22.51
2022-08-29T18:20:01.245Z,22.49
2022-08-29T18:22:29.410Z,22.49
2022-08-29T18:24:57.673Z,22.47
2022-08-29T18:27:25.034Z,22.45
2022-08-29T18:29:51.967Z,22.44
2022-08-29T18:32:19.148Z,22.44
2022-08-29T18:34:45.663Z,22.45
2022-08-29T18:37:12.486Z,22.44
2022-08-29T18:39:39.425Z,22.42
2022-08-29T18:42:20.279Z,22.40
2022-08-29T18:44:54.531Z,22.42
2022-08-29T18:47:21.051Z,22.41
2022-08-29T18:50:06.108Z,22.40
2022-08-29T18:52:34.997Z,22.40
2022-08-29T18:55:01.481Z,22.41
2022-08-29T18:57:28.030Z,22.39
2022-08-29T18:59:54.527Z,22.40
2022-08-29T19:02:21.157Z,22.41
2022-08-29T19:04:47.867Z,22.43
2022-08-29T19:07:15.576Z,22.44
2022-08-29T19:09:52.911Z,22.42
2022-08-29T19:12:19.733Z,22.42
2022-08-29T19:14:46.355Z,22.44
2022-08-29T19:17:13.070Z,22.44
2022-08-29T19:19:58.228Z,22.42
2022-08-29T19:22:25.733Z,22.39
2022-08-29T19:24:52.235Z,22.39
2022-08-29T19:27:41.796Z,22.38
2022-08-29T19:30:07.066Z,22.35
2022-08-29T19:32:34.204Z,22.35
2022-08-29T19:35:01.660Z,22.36
2022-08-29T19:37:28.179Z,22.35
2022-08-29T19:39:55.737Z,22.34
2022-08-29T19:42:22.293Z,22.34
2022-08-29T19:44:48.941Z,22.33
2022-08-29T19:47:15.446Z,22.31
2022-08-29T19:49:45.282Z,22.33
2022-08-29T19:52:12.060Z,22.31
2022-08-29T19:54:39.051Z,22.30
2022-08-29T19:57:14.520Z,22.31
2022-08-29T19:59:43.645Z,22.32
2022-08-29T20:02:10.627Z,22.34
2022-08-29T20:04:37.686Z,22.32
2022-08-29T20:07:05.345Z,22.33
2022-08-29T20:09:31.863Z,22.33
2022-08-29T20:11:58.794Z,22.32
2022-08-29T20:14:25.297Z,22.31
2022-08-29T20:16:51.792Z,22.30
2022-08-29T20:19:18.984Z,22.30
2022-08-29T20:21:45.846Z,22.30
2022-08-29T20:24:15.736Z,22.29
2022-08-29T20:26:43.444Z,22.27
2022-08-29T20:29:10.439Z,22.30
2022-08-29T20:31:37.282Z,22.32
2022-08-29T20:34:03.975Z,22.30
2022-08-29T20:36:49.034Z,22.29
2022-08-29T20:39:17.727Z,22.26
2022-08-29T20:41:57.817Z,22.27
2022-08-29T20:44:29.201Z,22.25
2022-08-29T20:46:59.629Z,22.24
2022-08-29T20:49:26.717Z,22.27
2022-08-29T20:51:53.274Z,22.20
2022-08-29T20:54:22.183Z,22.24
2022-08-29T20:56:48.734Z,22.24
2022-08-29T20:59:15.264Z,22.23
2022-08-29T21:01:43.147Z,22.21
2022-08-29T21:04:28.528Z,22.23
2022-08-29T21:06:59.841Z,22.23
2022-08-29T21:09:26.348Z,22.23
2022-08-29T21:11:52.892Z,22.21
2022-08-29T21:14:19.560Z,22.22
2022-08-29T21:16:46.147Z,22.22
2022-08-29T21:19:12.690Z,22.21
2022-08-29T21:21:39.416Z,22.18
2022-08-29T21:24:06.243Z,22.19
2022-08-29T21:26:33.354Z,22.19
2022-08-29T21:29:00.528Z,22.20
2022-08-29T21:31:27.107Z,22.18
2022-08-29T21:33:53.612Z,22.16
2022-08-29T21:36:21.647Z,22.22
2022-08-29T21:38:50.753Z,22.19
2022-08-29T21:41:17.286Z,22.15
2022-08-29T21:43:43.878Z,22.15
2022-08-29T21:46:23.687Z,22.15
2022-08-29T21:48:56.540Z,22.15
2022-08-29T21:51:23.547Z,22.13
2022-08-29T21:53:50.885Z,22.13
2022-08-29T21:56:17.597Z,22.12
2022-08-29T21:58:44.318Z,22.13
2022-08-29T22:01:11.320Z,22.13
2022-08-29T22:03:38.650Z,22.10
2022-08-29T22:06:05.476Z,22.11
2022-08-29T22:08:32.027Z,22.10
2022-08-29T22:11:00.203Z,22.09
2022-08-29T22:13:26.776Z,22.09
2022-08-29T22:16:12.031Z,22.07
2022-08-29T22:18:38.620Z,22.07
2022-08-29T22:21:05.841Z,22.09
2022-08-29T22:23:32.388Z,22.09
2022-08-29T22:25:58.973Z,22.02
2022-08-29T22:28:25.469Z,22.05
2022-08-29T22:30:52.299Z,22.04
2022-08-29T22:33:18.928Z,22.02
2022-08-29T22:35:45.486Z,22.04
2022-08-29T22:38:11.996Z,22.00
2022-08-29T22:40:38.634Z,21.99
2022-08-29T22:43:05.194Z,22.00
2022-08-29T22:45:32.242Z,21.99
2022-08-29T22:47:58.784Z,21.98
2022-08-29T22:50:25.275Z,21.97
2022-08-29T22:52:55.146Z,21.94
2022-08-29T22:57:47.599Z,21.92
2022-08-29T23:00:19.570Z,21.91
2022-08-29T23:02:46.216Z,21.92
2022-08-29T23:05:12.787Z,21.94
2022-08-29T23:07:39.272Z,21.98
2022-08-29T23:10:06.251Z,21.94
2022-08-29T23:12:32.738Z,21.91
2022-08-29T23:14:59.237Z,21.89
2022-08-29T23:17:26.970Z,21.90
2022-08-29T23:19:53.766Z,21.87
2022-08-29T23:22:20.403Z,21.85
2022-08-29T23:24:58.374Z,21.86
2022-08-29T23:27:29.051Z,21.84
2022-08-29T23:29:55.612Z,21.87
2022-08-29T23:32:22.097Z,21.84
2022-08-29T23:34:48.601Z,21.82
2022-08-29T23:37:15.095Z,21.82
2022-08-29T23:39:41.604Z,21.82
2022-08-29T23:42:08.128Z,21.81
2022-08-29T23:44:35.704Z,21.79
2022-08-29T23:47:02.225Z,21.79
2022-08-29T23:49:28.736Z,21.77
2022-08-29T23:51:55.237Z,21.79
2022-08-29T23:54:21.802Z,21.77
2022-08-29T23:56:48.328Z,21.78
2022-08-29T23:59:34.789Z,21.78
